sensor_id;sensor_type;location;lat;lon;timestamp;pressure;altitude;pressure_sealevel;temperature;humidity
78562;BME280;68963;52.138;5.446;2024-03-08T00:00:12;101978.59;;;1.86;100.00
78562;BME280;68963;52.138;5.446;2024-03-08T00:02:42;101963.22;;;1.83;100.00
78562;BME280;68963;52.138;5.446;2024-03-08T00:05:09;101964.88;;;1.84;100.00
78562;BME280;68963;52.138;5.446;2024-03-08T00:07:37;101965.72;;;1.84;100.00
78562;BME280;68963;52.138;5.446;2024-03-08T00:10:06;101964.97;;;1.82;100.00
78562;BME280;68963;52.138;5.446;2024-03-08T00:12:43;101965.94;;;1.81;100.00
78562;BME280;68963;52.138;5.446;2024-03-08T00:15:14;101960.81;;;1.80;100.00
78562;BME280;68963;52.138;5.446;2024-03-08T00:17:44;101963.63;;;1.77;100.00
78562;BME280;68963;52.138;5.446;2024-03-08T00:20:12;101952.31;;;1.78;100.00
78562;BME280;68963;52.138;5.446;2024-03-08T00:22:41;101960.31;;;1.75;100.00
78562;BME280;68963;52.138;5.446;2024-03-08T00:25:08;101950.94;;;1.72;100.00
78562;BME280;68963;52.138;5.446;2024-03-08T00:27:41;101946.69;;;1.71;100.00
78562;BME280;68963;52.138;5.446;2024-03-08T00:30:08;101956.34;;;1.69;100.00
78562;BME280;68963;52.138;5.446;2024-03-08T00:32:35;101952.19;;;1.66;100.00
78562;BME280;68963;52.138;5.446;2024-03-08T00:35:04;101952.28;;;1.65;100.00
78562;BME280;68963;52.138;5.446;2024-03-08T00:37:34;101954.88;;;1.65;100.00
78562;BME280;68963;52.138;5.446;2024-03-08T00:40:09;101948.97;;;1.63;100.00
78562;BME280;68963;52.138;5.446;2024-03-08T00:42:59;101941.38;;;1.60;100.00
78562;BME280;68963;52.138;5.446;2024-03-08T00:45:57;101936.50;;;1.55;100.00
78562;BME280;68963;52.138;5.446;2024-03-08T00:48:27;101936.59;;;1.54;100.00
78562;BME280;68963;52.138;5.446;2024-03-08T00:50:57;101933.38;;;1.50;100.00
78562;BME280;68963;52.138;5.446;2024-03-08T00:53:28;101934.41;;;1.48;100.00
78562;BME280;68963;52.138;5.446;2024-03-08T00:55:55;101934.50;;;1.46;100.00
78562;BME280;68963;52.138;5.446;2024-03-08T00:58:32;101928.78;;;1.41;100.00
78562;BME280;68963;52.138;5.446;2024-03-08T01:04:22;101921.41;;;1.35;100.00
78562;BME280;68963;52.138;5.446;2024-03-08T01:06:52;101921.50;;;1.33;100.00
78562;BME280;68963;52.138;5.446;2024-03-08T01:09:19;101920.78;;;1.31;100.00
78562;BME280;68963;52.138;5.446;2024-03-08T01:11:49;101909.44;;;1.32;100.00
78562;BME280;68963;52.138;5.446;2024-03-08T01:14:19;101905.19;;;1.31;100.00
78562;BME280;68963;52.138;5.446;2024-03-08T01:16:49;101899.38;;;1.28;100.00
78562;BME280;68963;52.138;5.446;2024-03-08T01:19:16;101896.97;;;1.25;100.00
78562;BME280;68963;52.138;5.446;2024-03-08T01:21:44;101897.91;;;1.24;100.00
78562;BME280;68963;52.138;5.446;2024-03-08T01:24:14;101890.34;;;1.20;100.00
78562;BME280;68963;52.138;5.446;2024-03-08T01:26:50;101882.84;;;1.16;100.00
78562;BME280;68963;52.138;5.446;2024-03-08T01:29:20;101884.81;;;1.12;100.00
78562;BME280;68963;52.138;5.446;2024-03-08T01:31:48;101885.97;;;1.08;100.00
78562;BME280;68963;52.138;5.446;2024-03-08T01:34:27;101882.63;;;1.06;100.00
78562;BME280;68963;52.138;5.446;2024-03-08T01:36:59;101880.84;;;1.07;100.00
78562;BME280;68963;52.138;5.446;2024-03-08T01:39:26;101868.94;;;1.04;100.00
78562;BME280;68963;52.138;5.446;2024-03-08T01:41:55;101866.53;;;1.01;100.00
78562;BME280;68963;52.138;5.446;2024-03-08T01:44:28;101862.47;;;0.97;100.00
78562;BME280;68963;52.138;5.446;2024-03-08T01:46:55;101864.31;;;0.95;100.00
78562;BME280;68963;52.138;5.446;2024-03-08T01:49:26;101857.47;;;0.94;100.00
78562;BME280;68963;52.138;5.446;2024-03-08T01:51:54;101864.53;;;0.92;100.00
78562;BME280;68963;52.138;5.446;2024-03-08T01:54:23;101861.28;;;0.88;100.00
78562;BME280;68963;52.138;5.446;2024-03-08T01:56:51;101851.16;;;0.85;100.00
78562;BME280;68963;52.138;5.446;2024-03-08T01:59:23;101847.81;;;0.83;100.00
78562;BME280;68963;52.138;5.446;2024-03-08T02:02:01;101853.19;;;0.80;100.00
78562;BME280;68963;52.138;5.446;2024-03-08T02:04:30;101845.59;;;0.77;100.00
78562;BME280;68963;52.138;5.446;2024-03-08T02:06:57;101844.97;;;0.73;100.00
78562;BME280;68963;52.138;5.446;2024-03-08T02:09:36;101843.41;;;0.71;100.00
78562;BME280;68963;52.138;5.446;2024-03-08T02:12:03;101843.41;;;0.71;100.00
78562;BME280;68963;52.138;5.446;2024-03-08T02:14:30;101843.50;;;0.69;100.00
78562;BME280;68963;52.138;5.446;2024-03-08T02:17:03;101837.69;;;0.66;100.00
78562;BME280;68963;52.138;5.446;2024-03-08T02:19:31;101831.66;;;0.65;100.00
78562;BME280;68963;52.138;5.446;2024-03-08T02:22:00;101835.31;;;0.63;100.00
78562;BME280;68963;52.138;5.446;2024-03-08T02:24:33;101829.50;;;0.59;100.00
78562;BME280;68963;52.138;5.446;2024-03-08T02:27:12;101832.28;;;0.56;100.00
78562;BME280;68963;52.138;5.446;2024-03-08T02:29:40;101827.28;;;0.53;100.00
78562;BME280;68963;52.138;5.446;2024-03-08T02:32:09;101829.13;;;0.51;100.00
78562;BME280;68963;52.138;5.446;2024-03-08T02:34:45;101824.16;;;0.48;100.00
78562;BME280;68963;52.138;5.446;2024-03-08T02:37:19;101824.34;;;0.45;100.00
78562;BME280;68963;52.138;5.446;2024-03-08T02:39:49;101816.66;;;0.43;100.00
78562;BME280;68963;52.138;5.446;2024-03-08T02:42:16;101813.34;;;0.41;100.00
78562;BME280;68963;52.138;5.446;2024-03-08T02:44:56;101807.41;;;0.39;100.00
78562;BME280;68963;52.138;5.446;2024-03-08T02:47:29;101805.03;;;0.36;100.00
78562;BME280;68963;52.138;5.446;2024-03-08T02:50:06;101806.16;;;0.32;100.00
78562;BME280;68963;52.138;5.446;2024-03-08T02:52:47;101796.72;;;0.31;100.00
78562;BME280;68963;52.138;5.446;2024-03-08T02:55:17;101794.25;;;0.30;100.00
78562;BME280;68963;52.138;5.446;2024-03-08T02:57:43;101797.84;;;0.27;100.00
78562;BME280;68963;52.138;5.446;2024-03-08T03:00:23;101789.31;;;0.25;100.00
78562;BME280;68963;52.138;5.446;2024-03-08T03:03:28;101784.44;;;0.20;100.00
78562;BME280;68963;52.138;5.446;2024-03-08T03:05:55;101787.66;;;0.24;100.00
78562;BME280;68963;52.138;5.446;2024-03-08T03:08:38;101776.56;;;0.22;100.00
78562;BME280;68963;52.138;5.446;2024-03-08T03:11:16;101782.78;;;0.19;100.00
78562;BME280;68963;52.138;5.446;2024-03-08T03:13:44;101775.00;;;0.19;100.00
78562;BME280;68963;52.138;5.446;2024-03-08T03:16:31;101772.50;;;0.18;100.00
78562;BME280;68963;52.138;5.446;2024-03-08T03:18:58;101767.44;;;0.16;100.00
78562;BME280;68963;52.138;5.446;2024-03-08T03:21:28;101770.97;;;0.15;100.00
78562;BME280;68963;52.138;5.446;2024-03-08T03:24:30;101765.84;;;0.14;100.00
78562;BME280;68963;52.138;5.446;2024-03-08T03:27:00;101769.50;;;0.11;100.00
78562;BME280;68963;52.138;5.446;2024-03-08T03:30:11;101763.56;;;0.09;100.00
78562;BME280;68963;52.138;5.446;2024-03-08T03:32:28;101762.75;;;0.09;100.00
78562;BME280;68963;52.138;5.446;2024-03-08T03:35:04;101758.38;;;0.09;100.00
78562;BME280;68963;52.138;5.446;2024-03-08T03:37:41;101756.72;;;0.08;100.00
78562;BME280;68963;52.138;5.446;2024-03-08T03:40:48;101754.03;;;0.10;100.00
78562;BME280;68963;52.138;5.446;2024-03-08T03:43:19;101755.69;;;0.11;100.00
78562;BME280;68963;52.138;5.446;2024-03-08T03:45:49;101750.50;;;0.11;100.00
78562;BME280;68963;52.138;5.446;2024-03-08T03:48:19;101746.25;;;0.10;100.00
78562;BME280;68963;52.138;5.446;2024-03-08T03:51:13;101748.03;;;0.09;100.00
78562;BME280;68963;52.138;5.446;2024-03-08T03:53:52;101742.84;;;0.09;100.00
78562;BME280;68963;52.138;5.446;2024-03-08T03:56:30;101744.59;;;0.09;100.00
78562;BME280;68963;52.138;5.446;2024-03-08T03:59:02;101739.63;;;0.06;100.00
78562;BME280;68963;52.138;5.446;2024-03-08T04:01:30;101741.38;;;0.05;100.00
78562;BME280;68963;52.138;5.446;2024-03-08T04:04:05;101741.38;;;0.05;100.00
78562;BME280;68963;52.138;5.446;2024-03-08T04:06:33;101742.22;;;0.06;100.00
78562;BME280;68963;52.138;5.446;2024-03-08T04:09:00;101744.69;;;0.07;100.00
78562;BME280;68963;52.138;5.446;2024-03-08T04:11:48;101735.38;;;0.05;100.00
78562;BME280;68963;52.138;5.446;2024-03-08T04:14:15;101736.09;;;0.07;100.00
78562;BME280;68963;52.138;5.446;2024-03-08T04:16:42;101735.38;;;0.05;100.00
78562;BME280;68963;52.138;5.446;2024-03-08T04:19:09;101733.81;;;0.02;100.00
78562;BME280;68963;52.138;5.446;2024-03-08T04:21:36;101726.13;;;0.01;100.00
78562;BME280;68963;52.138;5.446;2024-03-08T04:24:04;101729.56;;;0.01;100.00
78562;BME280;68963;52.138;5.446;2024-03-08T04:26:32;101732.03;;;0.03;100.00
78562;BME280;68963;52.138;5.446;2024-03-08T04:29:03;101728.72;;;0.01;100.00
78562;BME280;68963;52.138;5.446;2024-03-08T04:31:31;101729.75;;;-0.02;100.00
78562;BME280;68963;52.138;5.446;2024-03-08T04:33:58;101727.16;;;-0.02;100.00
78562;BME280;68963;52.138;5.446;2024-03-08T04:36:25;101722.09;;;-0.04;100.00
78562;BME280;68963;52.138;5.446;2024-03-08T04:38:51;101723.09;;;-0.06;100.00
78562;BME280;68963;52.138;5.446;2024-03-08T04:41:18;101724.94;;;-0.08;100.00
78562;BME280;68963;52.138;5.446;2024-03-08T04:43:46;101713.88;;;-0.10;100.00
78562;BME280;68963;52.138;5.446;2024-03-08T04:46:13;101716.47;;;-0.10;100.00
78562;BME280;68963;52.138;5.446;2024-03-08T04:48:40;101713.88;;;-0.10;100.00
78562;BME280;68963;52.138;5.446;2024-03-08T04:51:09;101715.72;;;-0.12;100.00
78562;BME280;68963;52.138;5.446;2024-03-08T04:53:42;101716.72;;;-0.15;100.00
78562;BME280;68963;52.138;5.446;2024-03-08T04:56:12;101721.00;;;-0.14;100.00
78562;BME280;68963;52.138;5.446;2024-03-08T04:58:46;101714.25;;;-0.16;100.00
78562;BME280;68963;52.138;5.446;2024-03-08T05:01:16;101712.47;;;-0.16;100.00
78562;BME280;68963;52.138;5.446;2024-03-08T05:03:46;101710.72;;;-0.15;100.00
78562;BME280;68963;52.138;5.446;2024-03-08T05:06:15;101707.31;;;-0.16;100.00
78562;BME280;68963;52.138;5.446;2024-03-08T05:08:42;101707.41;;;-0.17;100.00
78562;BME280;68963;52.138;5.446;2024-03-08T05:11:09;101710.94;;;-0.18;100.00
78562;BME280;68963;52.138;5.446;2024-03-08T05:13:36;101706.97;;;-0.24;100.00
78562;BME280;68963;52.138;5.446;2024-03-08T05:16:04;101701.91;;;-0.26;100.00
78562;BME280;68963;52.138;5.446;2024-03-08T05:18:31;101707.97;;;-0.27;100.00
78562;BME280;68963;52.138;5.446;2024-03-08T05:20:59;101709.66;;;-0.26;100.00
78562;BME280;68963;52.138;5.446;2024-03-08T05:23:26;101706.44;;;-0.29;100.00
78562;BME280;68963;52.138;5.446;2024-03-08T05:25:53;101698.75;;;-0.31;100.00
78562;BME280;68963;52.138;5.446;2024-03-08T05:28:23;101700.63;;;-0.33;100.00
78562;BME280;68963;52.138;5.446;2024-03-08T05:31:20;101702.34;;;-0.33;100.00
78562;BME280;68963;52.138;5.446;2024-03-08T05:34:07;101695.50;;;-0.34;100.00
78562;BME280;68963;52.138;5.446;2024-03-08T05:36:39;101682.56;;;-0.34;100.00
78562;BME280;68963;52.138;5.446;2024-03-08T05:39:06;101690.34;;;-0.34;100.00
78562;BME280;68963;52.138;5.446;2024-03-08T05:41:33;101688.69;;;-0.35;100.00
78562;BME280;68963;52.138;5.446;2024-03-08T05:44:01;101688.69;;;-0.35;100.00
78562;BME280;68963;52.138;5.446;2024-03-08T05:46:28;101688.78;;;-0.37;100.00
78562;BME280;68963;52.138;5.446;2024-03-08T05:48:54;101688.78;;;-0.37;100.00
78562;BME280;68963;52.138;5.446;2024-03-08T05:51:24;101685.47;;;-0.39;100.00
78562;BME280;68963;52.138;5.446;2024-03-08T05:53:51;101687.28;;;-0.41;100.00
78562;BME280;68963;52.138;5.446;2024-03-08T05:56:20;101688.16;;;-0.40;100.00
78562;BME280;68963;52.138;5.446;2024-03-08T05:58:46;101684.00;;;-0.43;100.00
78562;BME280;68963;52.138;5.446;2024-03-08T06:01:14;101683.06;;;-0.42;100.00
78562;BME280;68963;52.138;5.446;2024-03-08T06:03:43;101672.63;;;-0.40;100.00
78562;BME280;68963;52.138;5.446;2024-03-08T06:06:12;101668.47;;;-0.43;100.00
78562;BME280;68963;52.138;5.446;2024-03-08T06:08:40;101671.88;;;-0.42;100.00
78562;BME280;68963;52.138;5.446;2024-03-08T06:11:06;101672.63;;;-0.40;100.00
78562;BME280;68963;52.138;5.446;2024-03-08T06:13:39;101662.28;;;-0.40;100.00
78562;BME280;68963;52.138;5.446;2024-03-08T06:16:10;101668.16;;;-0.38;100.00
78562;BME280;68963;52.138;5.446;2024-03-08T06:18:38;101665.75;;;-0.41;100.00
78562;BME280;68963;52.138;5.446;2024-03-08T06:21:06;101675.28;;;-0.42;100.00
78562;BME280;68963;52.138;5.446;2024-03-08T06:23:33;101664.75;;;-0.39;100.00
78562;BME280;68963;52.138;5.446;2024-03-08T06:26:01;101662.69;;;-0.34;100.00
78562;BME280;68963;52.138;5.446;2024-03-08T06:28:27;101671.09;;;-0.30;100.00
78562;BME280;68963;52.138;5.446;2024-03-08T06:30:54;101664.16;;;-0.30;100.00
78562;BME280;68963;52.138;5.446;2024-03-08T06:33:21;101662.31;;;-0.28;100.00
78562;BME280;68963;52.138;5.446;2024-03-08T06:35:47;101662.13;;;-0.25;100.00
78562;BME280;68963;52.138;5.446;2024-03-08T06:38:14;101664.53;;;-0.21;100.00
78562;BME280;68963;52.138;5.446;2024-03-08T06:40:43;101663.47;;;-0.19;100.00
78562;BME280;68963;52.138;5.446;2024-03-08T06:43:10;101662.34;;;-0.15;100.00
78562;BME280;68963;52.138;5.446;2024-03-08T06:45:40;101661.25;;;-0.11;100.00
78562;BME280;68963;52.138;5.446;2024-03-08T06:48:07;101663.53;;;-0.06;100.00
78562;BME280;68963;52.138;5.446;2024-03-08T06:50:36;101658.38;;;-0.06;100.00
78562;BME280;68963;52.138;5.446;2024-03-08T06:53:03;101648.53;;;-0.01;100.00
78562;BME280;68963;52.138;5.446;2024-03-08T06:55:30;101649.16;;;0.03;100.00
78562;BME280;68963;52.138;5.446;2024-03-08T06:57:56;101660.91;;;0.08;100.00
78562;BME280;68963;52.138;5.446;2024-03-08T07:00:24;101657.19;;;0.12;100.00
78562;BME280;68963;52.138;5.446;2024-03-08T07:02:53;101655.09;;;0.17;100.00
78562;BME280;68963;52.138;5.446;2024-03-08T07:05:20;101647.88;;;0.22;100.00
78562;BME280;68963;52.138;5.446;2024-03-08T07:07:46;101659.38;;;0.31;100.00
78562;BME280;68963;52.138;5.446;2024-03-08T07:10:15;101650.59;;;0.34;100.00
78562;BME280;68963;52.138;5.446;2024-03-08T07:12:43;101657.13;;;0.39;100.00
78562;BME280;68963;52.138;5.446;2024-03-08T07:15:10;101642.09;;;0.44;100.00
78562;BME280;68963;52.138;5.446;2024-03-08T07:17:41;101649.44;;;0.51;100.00
78562;BME280;68963;52.138;5.446;2024-03-08T07:20:11;101650.81;;;0.56;100.00
78562;BME280;68963;52.138;5.446;2024-03-08T07:22:39;101646.97;;;0.62;100.00
78562;BME280;68963;52.138;5.446;2024-03-08T07:25:06;101643.25;;;0.66;100.00
78562;BME280;68963;52.138;5.446;2024-03-08T07:27:36;101642.72;;;0.73;100.00
78562;BME280;68963;52.138;5.446;2024-03-08T07:30:03;101643.25;;;0.79;100.00
78562;BME280;68963;52.138;5.446;2024-03-08T07:32:32;101631.53;;;0.86;100.00
78562;BME280;68963;52.138;5.446;2024-03-08T07:35:01;101627.66;;;0.91;100.00
78562;BME280;68963;52.138;5.446;2024-03-08T07:37:28;101628.06;;;0.98;100.00
78562;BME280;68963;52.138;5.446;2024-03-08T07:39:55;101630.34;;;1.03;100.00
78562;BME280;68963;52.138;5.446;2024-03-08T07:42:21;101626.59;;;1.07;100.00
78562;BME280;68963;52.138;5.446;2024-03-08T07:44:49;101619.44;;;1.10;100.00
78562;BME280;68963;52.138;5.446;2024-03-08T07:47:16;101616.34;;;1.18;100.00
78562;BME280;68963;52.138;5.446;2024-03-08T07:49:47;101611.53;;;1.25;100.00
78562;BME280;68963;52.138;5.446;2024-03-08T07:52:14;101611.09;;;1.31;100.00
78562;BME280;68963;52.138;5.446;2024-03-08T07:54:41;101612.31;;;1.38;100.00
78562;BME280;68963;52.138;5.446;2024-03-08T07:57:08;101609.38;;;1.42;100.00
78562;BME280;68963;52.138;5.446;2024-03-08T07:59:35;101611.78;;;1.45;100.00
78562;BME280;68963;52.138;5.446;2024-03-08T08:02:01;101606.03;;;1.53;100.00
78562;BME280;68963;52.138;5.446;2024-03-08T08:04:28;101601.94;;;1.62;100.00
78562;BME280;68963;52.138;5.446;2024-03-08T08:06:55;101594.66;;;1.67;100.00
78562;BME280;68963;52.138;5.446;2024-03-08T08:09:21;101596.56;;;1.76;100.00
78562;BME280;68963;52.138;5.446;2024-03-08T08:12:01;101596.13;;;1.82;100.00
78562;BME280;68963;52.138;5.446;2024-03-08T08:14:30;101589.56;;;1.89;100.00
78562;BME280;68963;52.138;5.446;2024-03-08T08:16:59;101589.94;;;1.96;100.00
78562;BME280;68963;52.138;5.446;2024-03-08T08:19:30;101584.25;;;2.02;100.00
78562;BME280;68963;52.138;5.446;2024-03-08T08:21:58;101581.81;;;2.12;100.00
78562;BME280;68963;52.138;5.446;2024-03-08T08:24:24;101573.44;;;2.20;100.00
78562;BME280;68963;52.138;5.446;2024-03-08T08:26:52;101578.88;;;2.28;100.00
78562;BME280;68963;52.138;5.446;2024-03-08T08:29:19;101573.97;;;2.36;100.00
78562;BME280;68963;52.138;5.446;2024-03-08T08:31:46;101569.69;;;2.46;100.00
78562;BME280;68963;52.138;5.446;2024-03-08T08:34:13;101567.00;;;2.48;100.00
78562;BME280;68963;52.138;5.446;2024-03-08T08:36:40;101563.91;;;2.54;100.00
78562;BME280;68963;52.138;5.446;2024-03-08T08:39:06;101562.16;;;2.65;100.00
78562;BME280;68963;52.138;5.446;2024-03-08T08:41:40;101563.34;;;2.73;100.00
78562;BME280;68963;52.138;5.446;2024-03-08T08:44:07;101553.63;;;2.75;100.00
78562;BME280;68963;52.138;5.446;2024-03-08T08:46:42;101549.47;;;2.83;100.00
78562;BME280;68963;52.138;5.446;2024-03-08T08:49:08;101551.97;;;2.85;100.00
78562;BME280;68963;52.138;5.446;2024-03-08T08:51:41;101546.03;;;2.94;100.00
78562;BME280;68963;52.138;5.446;2024-03-08T08:54:07;101550.06;;;2.98;100.00
78562;BME280;68963;52.138;5.446;2024-03-08T08:56:37;101542.00;;;3.01;100.00
78562;BME280;68963;52.138;5.446;2024-03-08T08:59:03;101546.50;;;3.10;100.00
78562;BME280;68963;52.138;5.446;2024-03-08T09:01:31;101536.28;;;3.19;100.00
78562;BME280;68963;52.138;5.446;2024-03-08T09:03:58;101535.69;;;3.26;100.00
78562;BME280;68963;52.138;5.446;2024-03-08T09:06:24;101538.84;;;3.41;100.00
78562;BME280;68963;52.138;5.446;2024-03-08T09:08:52;101535.84;;;3.46;100.00
78562;BME280;68963;52.138;5.446;2024-03-08T09:11:19;101526.09;;;3.59;100.00
78562;BME280;68963;52.138;5.446;2024-03-08T09:13:46;101531.63;;;3.66;100.00
78562;BME280;68963;52.138;5.446;2024-03-08T09:16:13;101527.44;;;3.74;100.00
78562;BME280;68963;52.138;5.446;2024-03-08T09:18:40;101521.03;;;3.78;100.00
78562;BME280;68963;52.138;5.446;2024-03-08T09:21:08;101510.69;;;3.88;100.00
78562;BME280;68963;52.138;5.446;2024-03-08T09:23:36;101514.81;;;3.91;100.00
78562;BME280;68963;52.138;5.446;2024-03-08T09:26:03;101514.44;;;3.95;100.00
78562;BME280;68963;52.138;5.446;2024-03-08T09:28:35;101510.59;;;3.99;100.00
78562;BME280;68963;52.138;5.446;2024-03-08T09:31:02;101506.03;;;4.13;100.00
78562;BME280;68963;52.138;5.446;2024-03-08T09:33:29;101495.78;;;4.30;100.00
78562;BME280;68963;52.138;5.446;2024-03-08T09:35:56;101497.31;;;4.33;100.00
78562;BME280;68963;52.138;5.446;2024-03-08T09:38:29;101481.72;;;4.43;100.00
78562;BME280;68963;52.138;5.446;2024-03-08T09:40:55;101482.28;;;4.46;100.00
78562;BME280;68963;52.138;5.446;2024-03-08T09:43:23;101479.28;;;4.51;100.00
78562;BME280;68963;52.138;5.446;2024-03-08T09:45:50;101481.22;;;4.58;100.00
78562;BME280;68963;52.138;5.446;2024-03-08T09:48:18;101469.03;;;4.69;100.00
78562;BME280;68963;52.138;5.446;2024-03-08T09:50:46;101462.69;;;4.71;100.00
78562;BME280;68963;52.138;5.446;2024-03-08T09:53:13;101459.72;;;4.76;100.00
78562;BME280;68963;52.138;5.446;2024-03-08T09:55:39;101454.63;;;4.84;100.00
78562;BME280;68963;52.138;5.446;2024-03-08T09:58:10;101447.78;;;4.93;100.00
78562;BME280;68963;52.138;5.446;2024-03-08T10:00:56;101448.88;;;5.00;100.00
78562;BME280;68963;52.138;5.446;2024-03-08T10:03:28;101443.78;;;5.08;100.00
78562;BME280;68963;52.138;5.446;2024-03-08T10:05:56;101445.88;;;5.14;100.00
78562;BME280;68963;52.138;5.446;2024-03-08T10:08:29;101444.63;;;5.18;100.00
78562;BME280;68963;52.138;5.446;2024-03-08T10:10:57;101439.16;;;5.31;100.00
78562;BME280;68963;52.138;5.446;2024-03-08T10:13:26;101437.06;;;5.35;100.00
78562;BME280;68963;52.138;5.446;2024-03-08T10:15:54;101422.88;;;5.47;100.00
78562;BME280;68963;52.138;5.446;2024-03-08T10:18:21;101427.69;;;5.61;100.00
78562;BME280;68963;52.138;5.446;2024-03-08T10:21:03;101415.56;;;5.70;100.00
78562;BME280;68963;52.138;5.446;2024-03-08T10:23:34;101408.94;;;5.75;100.00
78562;BME280;68963;52.138;5.446;2024-03-08T10:26:13;101410.69;;;5.85;100.00
78562;BME280;68963;52.138;5.446;2024-03-08T10:28:45;101399.13;;;5.97;100.00
78562;BME280;68963;52.138;5.446;2024-03-08T10:31:15;101392.75;;;6.09;100.00
78562;BME280;68963;52.138;5.446;2024-03-08T10:33:45;101398.22;;;6.16;98.09
78562;BME280;68963;52.138;5.446;2024-03-08T10:36:13;101387.84;;;6.24;98.28
78562;BME280;68963;52.138;5.446;2024-03-08T10:38:42;101386.75;;;6.26;100.00
78562;BME280;68963;52.138;5.446;2024-03-08T10:41:16;101383.97;;;6.28;98.71
78562;BME280;68963;52.138;5.446;2024-03-08T10:49:26;101373.78;;;6.52;96.83
78562;BME280;68963;52.138;5.446;2024-03-08T10:51:57;101373.09;;;6.50;93.66
78562;BME280;68963;52.138;5.446;2024-03-08T10:54:26;101365.78;;;6.54;94.99
78562;BME280;68963;52.138;5.446;2024-03-08T10:56:53;101358.69;;;6.64;96.06
78562;BME280;68963;52.138;5.446;2024-03-08T10:59:22;101360.25;;;6.75;94.66
78562;BME280;68963;52.138;5.446;2024-03-08T11:01:48;101344.44;;;6.85;92.29
78562;BME280;68963;52.138;5.446;2024-03-08T11:04:16;101339.59;;;6.90;93.06
78562;BME280;68963;52.138;5.446;2024-03-08T11:06:46;101332.09;;;6.95;91.68
78562;BME280;68963;52.138;5.446;2024-03-08T11:09:32;101329.69;;;7.01;91.81
78562;BME280;68963;52.138;5.446;2024-03-08T11:12:18;101320.72;;;7.04;91.41
78562;BME280;68963;52.138;5.446;2024-03-08T11:14:46;101318.84;;;7.14;92.41
78562;BME280;68963;52.138;5.446;2024-03-08T11:17:16;101322.16;;;7.24;93.61
78562;BME280;68963;52.138;5.446;2024-03-08T11:19:47;101315.84;;;7.35;89.20
78562;BME280;68963;52.138;5.446;2024-03-08T11:22:24;101301.16;;;7.42;87.12
78562;BME280;68963;52.138;5.446;2024-03-08T11:24:57;101295.78;;;7.44;88.77
78562;BME280;68963;52.138;5.446;2024-03-08T11:28:06;101281.22;;;7.58;88.46
78562;BME280;68963;52.138;5.446;2024-03-08T11:30:32;101278.66;;;7.66;88.11
78562;BME280;68963;52.138;5.446;2024-03-08T11:33:01;101277.88;;;7.73;88.71
78562;BME280;68963;52.138;5.446;2024-03-08T11:35:29;101272.34;;;7.85;86.20
78562;BME280;68963;52.138;5.446;2024-03-08T11:38:01;101268.91;;;7.92;85.02
78562;BME280;68963;52.138;5.446;2024-03-08T11:40:28;101263.00;;;7.98;86.54
78562;BME280;68963;52.138;5.446;2024-03-08T11:42:55;101263.06;;;8.07;87.66
78562;BME280;68963;52.138;5.446;2024-03-08T11:45:22;101247.81;;;8.27;83.04
78562;BME280;68963;52.138;5.446;2024-03-08T11:47:49;101251.28;;;8.35;84.61
78562;BME280;68963;52.138;5.446;2024-03-08T11:50:17;101236.06;;;8.47;83.28
78562;BME280;68963;52.138;5.446;2024-03-08T11:52:47;101231.63;;;8.56;80.70
78562;BME280;68963;52.138;5.446;2024-03-08T11:55:14;101240.63;;;8.61;83.09
78562;BME280;68963;52.138;5.446;2024-03-08T11:57:41;101236.38;;;8.60;83.43
78562;BME280;68963;52.138;5.446;2024-03-08T12:00:16;101216.22;;;8.69;83.82
78562;BME280;68963;52.138;5.446;2024-03-08T12:03:03;101218.47;;;8.72;82.99
78562;BME280;68963;52.138;5.446;2024-03-08T12:05:31;101216.00;;;8.87;81.61
78562;BME280;68963;52.138;5.446;2024-03-08T12:08:01;101215.50;;;8.91;80.55
78562;BME280;68963;52.138;5.446;2024-03-08T12:10:28;101218.97;;;8.92;80.85
78562;BME280;68963;52.138;5.446;2024-03-08T12:12:57;101209.09;;;8.94;80.44
78562;BME280;68963;52.138;5.446;2024-03-08T12:15:26;101202.97;;;9.02;81.37
78562;BME280;68963;52.138;5.446;2024-03-08T12:17:55;101195.09;;;9.10;81.08
78562;BME280;68963;52.138;5.446;2024-03-08T12:20:23;101187.84;;;9.12;82.38
78562;BME280;68963;52.138;5.446;2024-03-08T12:22:51;101195.38;;;9.23;80.12
78562;BME280;68963;52.138;5.446;2024-03-08T12:25:20;101190.94;;;9.24;76.46
78562;BME280;68963;52.138;5.446;2024-03-08T12:27:47;101189.16;;;9.16;75.69
78562;BME280;68963;52.138;5.446;2024-03-08T12:32:50;101180.56;;;9.30;77.91
78562;BME280;68963;52.138;5.446;2024-03-08T12:35:20;101176.44;;;9.36;75.90
78562;BME280;68963;52.138;5.446;2024-03-08T12:37:50;101168.38;;;9.37;77.93
78562;BME280;68963;52.138;5.446;2024-03-08T12:40:18;101170.47;;;9.42;77.51
78562;BME280;68963;52.138;5.446;2024-03-08T12:42:45;101164.34;;;9.50;77.48
78562;BME280;68963;52.138;5.446;2024-03-08T12:45:14;101159.56;;;9.53;75.36
78562;BME280;68963;52.138;5.446;2024-03-08T12:47:40;101156.06;;;9.61;75.27
78562;BME280;68963;52.138;5.446;2024-03-08T12:50:10;101158.22;;;9.65;73.77
78562;BME280;68963;52.138;5.446;2024-03-08T12:52:37;101153.41;;;9.69;75.11
78562;BME280;68963;52.138;5.446;2024-03-08T12:55:04;101153.69;;;9.74;74.84
78562;BME280;68963;52.138;5.446;2024-03-08T12:57:34;101142.91;;;9.61;71.21
78562;BME280;68963;52.138;5.446;2024-03-08T13:00:02;101140.00;;;9.56;73.55
78562;BME280;68963;52.138;5.446;2024-03-08T13:02:30;101136.63;;;9.70;75.42
78562;BME280;68963;52.138;5.446;2024-03-08T13:05:00;101134.25;;;9.83;76.08
78562;BME280;68963;52.138;5.446;2024-03-08T13:07:27;101127.66;;;9.87;75.14
78562;BME280;68963;52.138;5.446;2024-03-08T13:09:55;101125.09;;;9.94;73.90
78562;BME280;68963;52.138;5.446;2024-03-08T13:12:21;101127.56;;;9.96;74.91
78562;BME280;68963;52.138;5.446;2024-03-08T13:14:49;101123.13;;;9.96;71.69
78562;BME280;68963;52.138;5.446;2024-03-08T13:17:16;101119.84;;;9.94;73.41